sensor_id;sensor_type;location;lat;lon;timestamp;temperature;humidity
12287;DHT22;6206;53.100;11.098;2023-02-17T00:00:50;8.80;99.90
12287;DHT22;6206;53.100;11.098;2023-02-17T00:03:17;8.80;99.90
12287;DHT22;6206;53.100;11.098;2023-02-17T00:05:44;8.90;99.90
12287;DHT22;6206;53.100;11.098;2023-02-17T00:08:11;8.90;99.90
12287;DHT22;6206;53.100;11.098;2023-02-17T00:10:37;8.90;99.90
12287;DHT22;6206;53.100;11.098;2023-02-17T00:13:04;9.00;99.90
12287;DHT22;6206;53.100;11.098;2023-02-17T00:15:30;9.00;99.90
12287;DHT22;6206;53.100;11.098;2023-02-17T00:17:57;9.00;99.90
12287;DHT22;6206;53.100;11.098;2023-02-17T00:20:23;9.00;99.90
12287;DHT22;6206;53.100;11.098;2023-02-17T00:27:45;9.10;99.90
12287;DHT22;6206;53.100;11.098;2023-02-17T00:30:11;9.10;99.90
12287;DHT22;6206;53.100;11.098;2023-02-17T00:32:38;9.10;99.90
12287;DHT22;6206;53.100;11.098;2023-02-17T00:35:05;9.20;99.90
12287;DHT22;6206;53.100;11.098;2023-02-17T00:37:33;9.20;99.90
12287;DHT22;6206;53.100;11.098;2023-02-17T00:40:00;9.20;99.90
12287;DHT22;6206;53.100;11.098;2023-02-17T00:42:26;9.20;99.90
12287;DHT22;6206;53.100;11.098;2023-02-17T00:44:54;9.20;99.90
12287;DHT22;6206;53.100;11.098;2023-02-17T00:47:20;9.20;99.90
12287;DHT22;6206;53.100;11.098;2023-02-17T00:49:47;9.20;99.90
12287;DHT22;6206;53.100;11.098;2023-02-17T00:52:13;9.20;99.90
12287;DHT22;6206;53.100;11.098;2023-02-17T00:54:40;9.20;99.90
12287;DHT22;6206;53.100;11.098;2023-02-17T00:57:06;9.20;99.90
12287;DHT22;6206;53.100;11.098;2023-02-17T00:59:33;9.20;99.90
12287;DHT22;6206;53.100;11.098;2023-02-17T01:02:00;9.20;99.90
12287;DHT22;6206;53.100;11.098;2023-02-17T01:04:27;9.20;99.90
12287;DHT22;6206;53.100;11.098;2023-02-17T01:06:53;9.30;99.90
12287;DHT22;6206;53.100;11.098;2023-02-17T01:09:20;9.30;99.90
12287;DHT22;6206;53.100;11.098;2023-02-17T01:11:46;9.20;99.90
12287;DHT22;6206;53.100;11.098;2023-02-17T01:16:40;9.20;99.90
12287;DHT22;6206;53.100;11.098;2023-02-17T01:19:11;9.20;99.90
12287;DHT22;6206;53.100;11.098;2023-02-17T01:21:38;9.30;99.90
12287;DHT22;6206;53.100;11.098;2023-02-17T01:24:06;9.30;99.90
12287;DHT22;6206;53.100;11.098;2023-02-17T01:26:34;9.30;99.90
12287;DHT22;6206;53.100;11.098;2023-02-17T01:29:01;9.40;99.90
12287;DHT22;6206;53.100;11.098;2023-02-17T01:31:27;9.40;99.90
12287;DHT22;6206;53.100;11.098;2023-02-17T01:33:54;9.50;99.90
12287;DHT22;6206;53.100;11.098;2023-02-17T01:36:22;9.40;99.90
12287;DHT22;6206;53.100;11.098;2023-02-17T01:38:49;9.40;99.90
12287;DHT22;6206;53.100;11.098;2023-02-17T01:41:16;9.40;99.90
12287;DHT22;6206;53.100;11.098;2023-02-17T01:46:24;9.40;99.90
12287;DHT22;6206;53.100;11.098;2023-02-17T01:48:50;9.40;99.90
12287;DHT22;6206;53.100;11.098;2023-02-17T01:51:17;9.50;99.90
12287;DHT22;6206;53.100;11.098;2023-02-17T01:56:14;9.50;99.90
12287;DHT22;6206;53.100;11.098;2023-02-17T01:58:41;9.50;99.90
12287;DHT22;6206;53.100;11.098;2023-02-17T02:01:09;9.60;99.90
12287;DHT22;6206;53.100;11.098;2023-02-17T02:03:36;9.60;99.90
12287;DHT22;6206;53.100;11.098;2023-02-17T02:06:04;9.60;99.90
12287;DHT22;6206;53.100;11.098;2023-02-17T02:08:33;9.70;99.90
12287;DHT22;6206;53.100;11.098;2023-02-17T02:11:04;9.60;99.90
12287;DHT22;6206;53.100;11.098;2023-02-17T02:13:31;9.60;99.90
12287;DHT22;6206;53.100;11.098;2023-02-17T02:16:00;9.60;99.90
12287;DHT22;6206;53.100;11.098;2023-02-17T02:18:34;9.60;99.90
12287;DHT22;6206;53.100;11.098;2023-02-17T02:21:17;9.60;99.90
12287;DHT22;6206;53.100;11.098;2023-02-17T02:23:52;9.60;99.90
12287;DHT22;6206;53.100;11.098;2023-02-17T02:29:12;9.60;99.90
12287;DHT22;6206;53.100;11.098;2023-02-17T02:31:47;9.60;99.90
12287;DHT22;6206;53.100;11.098;2023-02-17T02:34:20;9.60;99.90
12287;DHT22;6206;53.100;11.098;2023-02-17T02:36:49;9.60;99.90
12287;DHT22;6206;53.100;11.098;2023-02-17T02:39:18;9.60;99.90
12287;DHT22;6206;53.100;11.098;2023-02-17T02:44:12;9.60;99.90
12287;DHT22;6206;53.100;11.098;2023-02-17T02:46:39;9.60;99.90
12287;DHT22;6206;53.100;11.098;2023-02-17T02:49:06;9.60;99.90
12287;DHT22;6206;53.100;11.098;2023-02-17T02:51:37;9.60;99.90
12287;DHT22;6206;53.100;11.098;2023-02-17T02:54:16;9.60;99.90
12287;DHT22;6206;53.100;11.098;2023-02-17T02:56:50;9.70;99.90
12287;DHT22;6206;53.100;11.098;2023-02-17T02:59:22;9.60;99.90
12287;DHT22;6206;53.100;11.098;2023-02-17T03:01:53;9.70;99.90
12287;DHT22;6206;53.100;11.098;2023-02-17T03:04:24;9.70;99.90
12287;DHT22;6206;53.100;11.098;2023-02-17T03:06:57;9.70;99.90
12287;DHT22;6206;53.100;11.098;2023-02-17T03:09:26;9.70;99.90
12287;DHT22;6206;53.100;11.098;2023-02-17T03:11:53;9.70;99.90
12287;DHT22;6206;53.100;11.098;2023-02-17T03:14:20;9.70;99.90
12287;DHT22;6206;53.100;11.098;2023-02-17T03:16:47;9.70;99.90
12287;DHT22;6206;53.100;11.098;2023-02-17T03:19:15;9.70;99.90
12287;DHT22;6206;53.100;11.098;2023-02-17T03:21:49;9.70;99.90
12287;DHT22;6206;53.100;11.098;2023-02-17T03:24:17;9.80;99.90
12287;DHT22;6206;53.100;11.098;2023-02-17T03:29:10;9.80;99.90
12287;DHT22;6206;53.100;11.098;2023-02-17T03:31:37;9.90;99.90
12287;DHT22;6206;53.100;11.098;2023-02-17T03:34:04;9.90;99.90
12287;DHT22;6206;53.100;11.098;2023-02-17T03:36:30;9.90;99.90
12287;DHT22;6206;53.100;11.098;2023-02-17T03:38:57;9.90;99.90
12287;DHT22;6206;53.100;11.098;2023-02-17T03:41:25;9.90;99.90
12287;DHT22;6206;53.100;11.098;2023-02-17T03:43:51;10.00;99.90
12287;DHT22;6206;53.100;11.098;2023-02-17T03:46:18;10.00;99.90
12287;DHT22;6206;53.100;11.098;2023-02-17T03:48:44;10.00;99.90
12287;DHT22;6206;53.100;11.098;2023-02-17T03:51:11;10.00;99.90
12287;DHT22;6206;53.100;11.098;2023-02-17T03:53:38;10.00;99.90
12287;DHT22;6206;53.100;11.098;2023-02-17T03:56:05;10.00;99.90
12287;DHT22;6206;53.100;11.098;2023-02-17T03:58:33;10.10;99.90
12287;DHT22;6206;53.100;11.098;2023-02-17T04:01:00;10.10;99.90
12287;DHT22;6206;53.100;11.098;2023-02-17T04:03:26;10.10;99.90
12287;DHT22;6206;53.100;11.098;2023-02-17T04:05:53;10.10;99.90
12287;DHT22;6206;53.100;11.098;2023-02-17T04:08:19;10.10;99.90
12287;DHT22;6206;53.100;11.098;2023-02-17T04:10:47;10.10;99.90
12287;DHT22;6206;53.100;11.098;2023-02-17T04:13:16;10.10;99.90
12287;DHT22;6206;53.100;11.098;2023-02-17T04:15:44;10.10;99.90
12287;DHT22;6206;53.100;11.098;2023-02-17T04:18:10;10.20;99.90
12287;DHT22;6206;53.100;11.098;2023-02-17T04:20:36;10.20;99.90
12287;DHT22;6206;53.100;11.098;2023-02-17T04:23:03;10.20;99.90
12287;DHT22;6206;53.100;11.098;2023-02-17T04:25:31;10.20;99.90
12287;DHT22;6206;53.100;11.098;2023-02-17T04:27:58;10.20;99.90
12287;DHT22;6206;53.100;11.098;2023-02-17T04:30:24;10.20;99.90
12287;DHT22;6206;53.100;11.098;2023-02-17T04:32:52;10.20;99.90
12287;DHT22;6206;53.100;11.098;2023-02-17T04:35:19;10.20;99.90
12287;DHT22;6206;53.100;11.098;2023-02-17T04:37:45;10.20;99.90
12287;DHT22;6206;53.100;11.098;2023-02-17T04:40:12;10.20;99.90
12287;DHT22;6206;53.100;11.098;2023-02-17T04:42:38;10.20;99.90
12287;DHT22;6206;53.100;11.098;2023-02-17T04:45:05;10.30;99.90
12287;DHT22;6206;53.100;11.098;2023-02-17T04:47:32;10.30;99.90
12287;DHT22;6206;53.100;11.098;2023-02-17T04:50:00;10.30;99.90
12287;DHT22;6206;53.100;11.098;2023-02-17T04:52:26;10.30;99.90
12287;DHT22;6206;53.100;11.098;2023-02-17T04:54:53;10.30;99.90
12287;DHT22;6206;53.100;11.098;2023-02-17T04:57:19;10.30;99.90
12287;DHT22;6206;53.100;11.098;2023-02-17T04:59:46;10.30;99.90
12287;DHT22;6206;53.100;11.098;2023-02-17T05:02:12;10.30;99.90
12287;DHT22;6206;53.100;11.098;2023-02-17T05:04:39;10.30;99.90
12287;DHT22;6206;53.100;11.098;2023-02-17T05:07:06;10.30;99.90
12287;DHT22;6206;53.100;11.098;2023-02-17T05:09:33;10.40;99.90
12287;DHT22;6206;53.100;11.098;2023-02-17T05:11:59;10.50;99.90
12287;DHT22;6206;53.100;11.098;2023-02-17T05:14:27;10.50;99.90
12287;DHT22;6206;53.100;11.098;2023-02-17T05:16:53;10.60;99.90
12287;DHT22;6206;53.100;11.098;2023-02-17T05:19:20;10.60;99.90
12287;DHT22;6206;53.100;11.098;2023-02-17T05:21:46;10.50;99.90
12287;DHT22;6206;53.100;11.098;2023-02-17T05:24:14;10.50;99.90
12287;DHT22;6206;53.100;11.098;2023-02-17T05:26:41;10.60;99.90
12287;DHT22;6206;53.100;11.098;2023-02-17T05:29:07;10.50;99.90
12287;DHT22;6206;53.100;11.098;2023-02-17T05:31:34;10.50;99.90
12287;DHT22;6206;53.100;11.098;2023-02-17T05:34:00;10.60;99.90
12287;DHT22;6206;53.100;11.098;2023-02-17T05:36:27;10.60;99.90
12287;DHT22;6206;53.100;11.098;2023-02-17T05:38:54;10.60;99.90
12287;DHT22;6206;53.100;11.098;2023-02-17T05:41:21;10.60;99.90
12287;DHT22;6206;53.100;11.098;2023-02-17T05:43:48;10.60;99.90
12287;DHT22;6206;53.100;11.098;2023-02-17T05:46:14;10.60;99.90
12287;DHT22;6206;53.100;11.098;2023-02-17T05:48:41;10.60;99.90
12287;DHT22;6206;53.100;11.098;2023-02-17T05:51:08;10.60;99.90
12287;DHT22;6206;53.100;11.098;2023-02-17T05:53:34;10.60;99.90
12287;DHT22;6206;53.100;11.098;2023-02-17T05:56:01;10.60;99.90
12287;DHT22;6206;53.100;11.098;2023-02-17T05:58:29;10.70;99.90
12287;DHT22;6206;53.100;11.098;2023-02-17T06:00:55;10.70;99.90
12287;DHT22;6206;53.100;11.098;2023-02-17T06:03:22;10.70;99.90
12287;DHT22;6206;53.100;11.098;2023-02-17T06:05:48;10.60;99.90
12287;DHT22;6206;53.100;11.098;2023-02-17T06:08:15;10.60;99.90
12287;DHT22;6206;53.100;11.098;2023-02-17T06:10:41;10.70;99.90
12287;DHT22;6206;53.100;11.098;2023-02-17T06:13:08;10.70;99.90
12287;DHT22;6206;53.100;11.098;2023-02-17T06:15:36;10.80;99.90
12287;DHT22;6206;53.100;11.098;2023-02-17T06:18:02;10.80;99.90
12287;DHT22;6206;53.100;11.098;2023-02-17T06:20:29;10.80;99.90
12287;DHT22;6206;53.100;11.098;2023-02-17T06:22:55;10.80;99.90
12287;DHT22;6206;53.100;11.098;2023-02-17T06:25:22;10.70;99.90
12287;DHT22;6206;53.100;11.098;2023-02-17T06:27:48;10.70;99.90
12287;DHT22;6206;53.100;11.098;2023-02-17T06:30:15;10.70;99.90
12287;DHT22;6206;53.100;11.098;2023-02-17T06:32:43;10.70;99.90
12287;DHT22;6206;53.100;11.098;2023-02-17T06:35:09;10.80;99.90
12287;DHT22;6206;53.100;11.098;2023-02-17T06:37:36;10.80;99.90
12287;DHT22;6206;53.100;11.098;2023-02-17T06:40:02;10.80;99.90
12287;DHT22;6206;53.100;11.098;2023-02-17T06:42:29;10.80;99.90
12287;DHT22;6206;53.100;11.098;2023-02-17T06:44:55;10.80;99.90
12287;DHT22;6206;53.100;11.098;2023-02-17T06:47:22;10.70;99.90
12287;DHT22;6206;53.100;11.098;2023-02-17T06:49:49;10.70;99.90
12287;DHT22;6206;53.100;11.098;2023-02-17T06:52:16;10.70;99.90
12287;DHT22;6206;53.100;11.098;2023-02-17T06:54:42;10.70;99.90
12287;DHT22;6206;53.100;11.098;2023-02-17T06:57:11;10.70;99.90
12287;DHT22;6206;53.100;11.098;2023-02-17T06:59:38;10.70;99.90
12287;DHT22;6206;53.100;11.098;2023-02-17T07:02:05;10.80;99.90
12287;DHT22;6206;53.100;11.098;2023-02-17T07:04:31;10.80;99.90
12287;DHT22;6206;53.100;11.098;2023-02-17T07:06:59;10.80;99.90
12287;DHT22;6206;53.100;11.098;2023-02-17T07:09:26;10.80;99.90
12287;DHT22;6206;53.100;11.098;2023-02-17T07:11:52;10.80;99.90
12287;DHT22;6206;53.100;11.098;2023-02-17T07:14:19;10.80;99.90
12287;DHT22;6206;53.100;11.098;2023-02-17T07:16:45;10.80;99.90
12287;DHT22;6206;53.100;11.098;2023-02-17T07:19:12;10.80;99.90
12287;DHT22;6206;53.100;11.098;2023-02-17T07:21:38;10.80;99.90
12287;DHT22;6206;53.100;11.098;2023-02-17T07:24:06;10.80;99.90
12287;DHT22;6206;53.100;11.098;2023-02-17T07:26:33;10.80;99.90
12287;DHT22;6206;53.100;11.098;2023-02-17T07:29:00;10.80;99.90
12287;DHT22;6206;53.100;11.098;2023-02-17T07:31:26;10.90;99.90
12287;DHT22;6206;53.100;11.098;2023-02-17T07:33:53;10.90;99.90
12287;DHT22;6206;53.100;11.098;2023-02-17T07:36:19;10.90;99.90
12287;DHT22;6206;53.100;11.098;2023-02-17T07:38:46;10.90;99.90
12287;DHT22;6206;53.100;11.098;2023-02-17T07:41:15;10.90;99.90
12287;DHT22;6206;53.100;11.098;2023-02-17T07:43:42;10.90;99.90
12287;DHT22;6206;53.100;11.098;2023-02-17T07:46:09;10.90;99.90
12287;DHT22;6206;53.100;11.098;2023-02-17T07:48:36;10.90;99.90
12287;DHT22;6206;53.100;11.098;2023-02-17T07:51:03;10.90;99.90
12287;DHT22;6206;53.100;11.098;2023-02-17T07:53:29;10.80;99.90
12287;DHT22;6206;53.100;11.098;2023-02-17T07:55:56;10.80;99.90
12287;DHT22;6206;53.100;11.098;2023-02-17T07:58:24;10.80;99.90
12287;DHT22;6206;53.100;11.098;2023-02-17T08:00:50;10.90;99.90
12287;DHT22;6206;53.100;11.098;2023-02-17T08:03:17;10.80;99.90
12287;DHT22;6206;53.100;11.098;2023-02-17T08:05:43;10.80;99.90
12287;DHT22;6206;53.100;11.098;2023-02-17T08:08:09;10.80;99.90
12287;DHT22;6206;53.100;11.098;2023-02-17T08:10:54;10.80;99.90
12287;DHT22;6206;53.100;11.098;2023-02-17T08:13:39;10.90;99.90
12287;DHT22;6206;53.100;11.098;2023-02-17T08:16:06;10.90;99.90
12287;DHT22;6206;53.100;11.098;2023-02-17T08:18:32;10.90;99.90
12287;DHT22;6206;53.100;11.098;2023-02-17T08:20:59;10.90;99.90
12287;DHT22;6206;53.100;11.098;2023-02-17T08:23:26;10.90;99.90
12287;DHT22;6206;53.100;11.098;2023-02-17T08:25:55;10.80;99.90
12287;DHT22;6206;53.100;11.098;2023-02-17T08:28:22;10.80;99.90
12287;DHT22;6206;53.100;11.098;2023-02-17T08:30:49;10.80;99.90
12287;DHT22;6206;53.100;11.098;2023-02-17T08:33:16;10.90;99.90
12287;DHT22;6206;53.100;11.098;2023-02-17T08:35:43;10.90;99.90
12287;DHT22;6206;53.100;11.098;2023-02-17T08:38:10;11.00;99.90
12287;DHT22;6206;53.100;11.098;2023-02-17T08:40:36;11.00;99.90
12287;DHT22;6206;53.100;11.098;2023-02-17T08:43:03;10.90;99.90
12287;DHT22;6206;53.100;11.098;2023-02-17T08:45:31;10.90;99.90
12287;DHT22;6206;53.100;11.098;2023-02-17T08:47:59;10.90;99.90
12287;DHT22;6206;53.100;11.098;2023-02-17T08:50:26;10.90;99.90
12287;DHT22;6206;53.100;11.098;2023-02-17T08:52:54;10.90;99.90
12287;DHT22;6206;53.100;11.098;2023-02-17T08:55:20;10.90;99.90
12287;DHT22;6206;53.100;11.098;2023-02-17T08:57:47;11.00;99.90
12287;DHT22;6206;53.100;11.098;2023-02-17T09:02:41;11.00;99.90
12287;DHT22;6206;53.100;11.098;2023-02-17T09:05:10;11.00;99.90
12287;DHT22;6206;53.100;11.098;2023-02-17T09:07:38;11.10;99.90
12287;DHT22;6206;53.100;11.098;2023-02-17T09:10:05;11.10;99.90
12287;DHT22;6206;53.100;11.098;2023-02-17T09:12:32;11.10;99.90
12287;DHT22;6206;53.100;11.098;2023-02-17T09:14:58;11.10;99.90
12287;DHT22;6206;53.100;11.098;2023-02-17T09:17:25;11.00;99.90
12287;DHT22;6206;53.100;11.098;2023-02-17T09:19:51;11.00;99.90
12287;DHT22;6206;53.100;11.098;2023-02-17T09:22:19;11.00;99.90
12287;DHT22;6206;53.100;11.098;2023-02-17T09:24:45;11.00;99.90
12287;DHT22;6206;53.100;11.098;2023-02-17T09:27:12;11.00;99.90
12287;DHT22;6206;53.100;11.098;2023-02-17T09:29:38;10.90;99.90
12287;DHT22;6206;53.100;11.098;2023-02-17T09:32:05;11.00;99.90
12287;DHT22;6206;53.100;11.098;2023-02-17T09:34:32;11.00;99.90
12287;DHT22;6206;53.100;11.098;2023-02-17T09:36:59;10.90;99.90
12287;DHT22;6206;53.100;11.098;2023-02-17T09:39:27;11.00;99.90
12287;DHT22;6206;53.100;11.098;2023-02-17T09:41:53;10.90;99.90
12287;DHT22;6206;53.100;11.098;2023-02-17T09:44:21;10.90;99.90
12287;DHT22;6206;53.100;11.098;2023-02-17T09:46:51;11.00;99.90
12287;DHT22;6206;53.100;11.098;2023-02-17T09:49:20;11.10;99.90
12287;DHT22;6206;53.100;11.098;2023-02-17T09:51:48;11.10;99.90
12287;DHT22;6206;53.100;11.098;2023-02-17T09:54:17;11.00;99.90
12287;DHT22;6206;53.100;11.098;2023-02-17T09:56:47;11.10;99.90
12287;DHT22;6206;53.100;11.098;2023-02-17T09:59:18;11.10;99.90
12287;DHT22;6206;53.100;11.098;2023-02-17T10:01:45;11.10;99.90
12287;DHT22;6206;53.100;11.098;2023-02-17T10:04:13;11.10;99.90
12287;DHT22;6206;53.100;11.098;2023-02-17T10:06:42;11.10;99.90
12287;DHT22;6206;53.100;11.098;2023-02-17T10:09:10;11.20;99.90
12287;DHT22;6206;53.100;11.098;2023-02-17T10:11:38;11.20;99.90
12287;DHT22;6206;53.100;11.098;2023-02-17T10:14:08;11.20;99.90
12287;DHT22;6206;53.100;11.098;2023-02-17T10:16:37;11.20;99.90
12287;DHT22;6206;53.100;11.098;2023-02-17T10:19:08;11.20;99.90
12287;DHT22;6206;53.100;11.098;2023-02-17T10:21:37;11.30;99.90
12287;DHT22;6206;53.100;11.098;2023-02-17T10:24:05;11.30;99.90
12287;DHT22;6206;53.100;11.098;2023-02-17T10:26:39;11.30;99.90
12287;DHT22;6206;53.100;11.098;2023-02-17T10:29:12;11.30;99.90
12287;DHT22;6206;53.100;11.098;2023-02-17T10:31:42;11.30;99.90
12287;DHT22;6206;53.100;11.098;2023-02-17T10:34:11;11.40;99.90
12287;DHT22;6206;53.100;11.098;2023-02-17T10:36:42;11.50;99.90
12287;DHT22;6206;53.100;11.098;2023-02-17T10:39:12;11.50;99.90
12287;DHT22;6206;53.100;11.098;2023-02-17T10:41:39;11.50;99.90
12287;DHT22;6206;53.100;11.098;2023-02-17T10:44:07;11.50;99.90
12287;DHT22;6206;53.100;11.098;2023-02-17T10:46:35;11.50;99.90
12287;DHT22;6206;53.100;11.098;2023-02-17T10:49:04;11.50;99.90
12287;DHT22;6206;53.100;11.098;2023-02-17T10:51:30;11.50;99.90
12287;DHT22;6206;53.100;11.098;2023-02-17T10:53:58;11.50;99.90
12287;DHT22;6206;53.100;11.098;2023-02-17T10:56:26;11.50;99.90
12287;DHT22;6206;53.100;11.098;2023-02-17T10:58:54;11.50;99.90
12287;DHT22;6206;53.100;11.098;2023-02-17T11:01:22;11.50;99.90
12287;DHT22;6206;53.100;11.098;2023-02-17T11:03:59;11.50;99.90
12287;DHT22;6206;53.100;11.098;2023-02-17T11:06:26;11.60;99.90
12287;DHT22;6206;53.100;11.098;2023-02-17T11:08:53;11.60;99.90
12287;DHT22;6206;53.100;11.098;2023-02-17T11:11:21;11.60;99.90
12287;DHT22;6206;53.100;11.098;2023-02-17T11:13:56;11.50;99.90
12287;DHT22;6206;53.100;11.098;2023-02-17T11:16:25;11.60;99.90
12287;DHT22;6206;53.100;11.098;2023-02-17T11:18:52;11.60;99.90
12287;DHT22;6206;53.100;11.098;2023-02-17T11:21:20;11.60;99.90
12287;DHT22;6206;53.100;11.098;2023-02-17T11:23:47;11.60;99.90
12287;DHT22;6206;53.100;11.098;2023-02-17T11:26:17;11.60;99.90
12287;DHT22;6206;53.100;11.098;2023-02-17T11:28:43;11.60;99.90
12287;DHT22;6206;53.100;11.098;2023-02-17T11:33:37;11.60;99.90
12287;DHT22;6206;53.100;11.098;2023-02-17T11:36:04;11.60;99.90
12287;DHT22;6206;53.100;11.098;2023-02-17T11:41:00;11.60;99.90
12287;DHT22;6206;53.100;11.098;2023-02-17T11:43:28;11.70;99.90
12287;DHT22;6206;53.100;11.098;2023-02-17T11:45:58;11.60;99.90
12287;DHT22;6206;53.100;11.098;2023-02-17T11:48:35;11.60;99.90
12287;DHT22;6206;53.100;11.098;2023-02-17T11:51:09;11.60;99.90
12287;DHT22;6206;53.100;11.098;2023-02-17T11:53:41;11.70;99.90
12287;DHT22;6206;53.100;11.098;2023-02-17T11:56:13;11.70;99.90
12287;DHT22;6206;53.100;11.098;2023-02-17T11:58:45;11.70;99.90
12287;DHT22;6206;53.100;11.098;2023-02-17T12:01:18;11.70;99.90
12287;DHT22;6206;53.100;11.098;2023-02-17T12:06:26;11.70;99.90
12287;DHT22;6206;53.100;11.098;2023-02-17T12:11:27;11.70;99.90
12287;DHT22;6206;53.100;11.098;2023-02-17T12:13:59;11.80;99.90
12287;DHT22;6206;53.100;11.098;2023-02-17T12:16:39;11.80;99.90
12287;DHT22;6206;53.100;11.098;2023-02-17T12:19:12;11.90;99.90
12287;DHT22;6206;53.100;11.098;2023-02-17T12:21:48;11.90;99.90
12287;DHT22;6206;53.100;11.098;2023-02-17T12:24:25;11.90;99.90
12287;DHT22;6206;53.100;11.098;2023-02-17T12:26:57;11.90;99.90
12287;DHT22;6206;53.100;11.098;2023-02-17T12:29:29;11.80;99.90
12287;DHT22;6206;53.100;11.098;2023-02-17T12:32:08;11.80;99.90
12287;DHT22;6206;53.100;11.098;2023-02-17T12:34:39;11.90;99.90
12287;DHT22;6206;53.100;11.098;2023-02-17T12:37:10;11.90;99.90
12287;DHT22;6206;53.100;11.098;2023-02-17T12:39:40;11.90;99.90
12287;DHT22;6206;53.100;11.098;2023-02-17T12:42:10;11.90;99.90
12287;DHT22;6206;53.100;11.098;2023-02-17T12:47:08;11.90;99.90
12287;DHT22;6206;53.100;11.098;2023-02-17T12:49:36;11.80;99.90
12287;DHT22;6206;53.100;11.098;2023-02-17T12:52:05;11.90;99.90
12287;DHT22;6206;53.100;11.098;2023-02-17T12:54:35;11.90;99.90
12287;DHT22;6206;53.100;11.098;2023-02-17T12:57:04;11.80;99.90
12287;DHT22;6206;53.100;11.098;2023-02-17T12:59:35;11.80;99.90
12287;DHT22;6206;53.100;11.098;2023-02-17T13:02:03;11.80;99.90
12287;DHT22;6206;53.100;11.098;2023-02-17T13:04:32;11.80;99.90
12287;DHT22;6206;53.100;11.098;2023-02-17T13:07:05;11.90;99.90
12287;DHT22;6206;53.100;11.098;2023-02-17T13:09:33;11.90;99.90
12287;DHT22;6206;53.100;11.098;2023-02-17T13:12:07;11.90;99.90
12287;DHT22;6206;53.100;11.098;2023-02-17T13:14:42;11.80;99.90
12287;DHT22;6206;53.100;11.098;2023-02-17T13:17:26;11.90;99.90
12287;DHT22;6206;53.100;11.098;2023-02-17T13:20:00;11.90;99.90
12287;DHT22;6206;53.100;11.098;2023-02-17T13:22:28;11.90;99.90
12287;DHT22;6206;53.100;11.098;2023-02-17T13:24:55;11.90;99.90
12287;DHT22;6206;53.100;11.098;2023-02-17T13:27:29;11.90;99.90
12287;DHT22;6206;53.100;11.098;2023-02-17T13:30:00;11.90;99.90
12287;DHT22;6206;53.100;11.098;2023-02-17T13:32:29;11.90;99.90
12287;DHT22;6206;53.100;11.098;2023-02-17T13:34:59;11.90;99.90
12287;DHT22;6206;53.100;11.098;2023-02-17T13:37:37;11.90;99.90
12287;DHT22;6206;53.100;11.098;2023-02-17T13:42:36;11.90;99.90
12287;DHT22;6206;53.100;11.098;2023-02-17T13:45:15;11.90;99.90
12287;DHT22;6206;53.100;11.098;2023-02-17T13:47:43;11.90;99.90
12287;DHT22;6206;53.100;11.098;2023-02-17T13:50:28;12.00;99.90
12287;DHT22;6206;53.100;11.098;2023-02-17T13:52:54;12.00;99.90
12287;DHT22;6206;53.100;11.098;2023-02-17T13:55:21;12.00;99.90
12287;DHT22;6206;53.100;11.098;2023-02-17T13:57:50;12.00;99.90
12287;DHT22;6206;53.100;11.098;2023-02-17T14:00:20;12.00;99.90
12287;DHT22;6206;53.100;11.098;2023-02-17T14:02:48;11.90;99.90
12287;DHT22;6206;53.100;11.098;2023-02-17T14:05:17;11.90;99.90
12287;DHT22;6206;53.100;11.098;2023-02-17T14:07:44;11.90;99.90
12287;DHT22;6206;53.100;11.098;2023-02-17T14:10:16;11.90;99.90
12287;DHT22;6206;53.100;11.098;2023-02-17T14:12:43;11.90;99.90
12287;DHT22;6206;53.100;11.098;2023-02-17T14:15:13;11.90;99.90
12287;DHT22;6206;53.100;11.098;2023-02-17T14:17:41;11.90;99.90
12287;DHT22;6206;53.100;11.098;2023-02-17T14:20:22;12.00;99.90
12287;DHT22;6206;53.100;11.098;2023-02-17T14:22:57;12.00;99.90
12287;DHT22;6206;53.100;11.098;2023-02-17T14:25:25;11.90;99.90
12287;DHT22;6206;53.100;11.098;2023-02-17T14:27:52;11.90;99.90
12287;DHT22;6206;53.100;11.098;2023-02-17T14:30:26;12.00;99.90
12287;DHT22;6206;53.100;11.098;2023-02-17T14:33:00;12.00;99.90
12287;DHT22;6206;53.100;11.098;2023-02-17T14:35:27;11.90;99.90
12287;DHT22;6206;53.100;11.098;2023-02-17T14:37:54;12.00;99.90
12287;DHT22;6206;53.100;11.098;2023-02-17T14:40:21;11.90;99.90
12287;DHT22;6206;53.100;11.098;2023-02-17T14:42:49;11.90;99.90
12287;DHT22;6206;53.100;11.098;2023-02-17T14:47:43;11.90;99.90
12287;DHT22;6206;53.100;11.098;2023-02-17T14:52:39;11.90;99.90
12287;DHT22;6206;53.100;11.098;2023-02-17T14:55:09;11.90;99.90
12287;DHT22;6206;53.100;11.098;2023-02-17T14:57:38;12.00;99.90
12287;DHT22;6206;53.100;11.098;2023-02-17T15:00:08;11.90;99.90
12287;DHT22;6206;53.100;11.098;2023-02-17T15:02:36;11.90;99.90
12287;DHT22;6206;53.100;11.098;2023-02-17T15:05:02;12.00;99.90
12287;DHT22;6206;53.100;11.098;2023-02-17T15:07:29;11.90;99.90
12287;DHT22;6206;53.100;11.098;2023-02-17T15:09:57;11.90;99.90
12287;DHT22;6206;53.100;11.098;2023-02-17T15:12:23;12.00;99.90
12287;DHT22;6206;53.100;11.098;2023-02-17T15:17:16;11.90;99.90
12287;DHT22;6206;53.100;11.098;2023-02-17T15:19:43;11.90;99.90
12287;DHT22;6206;53.100;11.098;2023-02-17T15:22:09;11.90;99.90
12287;DHT22;6206;53.100;11.098;2023-02-17T15:24:37;11.90;99.90
12287;DHT22;6206;53.100;11.098;2023-02-17T15:27:05;11.90;99.90
12287;DHT22;6206;53.100;11.098;2023-02-17T15:29:32;11.90;99.90
12287;DHT22;6206;53.100;11.098;2023-02-17T15:31:59;11.90;99.90
12287;DHT22;6206;53.100;11.098;2023-02-17T15:34:29;11.90;99.90
12287;DHT22;6206;53.100;11.098;2023-02-17T15:36:56;11.90;99.90
12287;DHT22;6206;53.100;11.098;2023-02-17T15:39:22;12.00;99.90
12287;DHT22;6206;53.100;11.098;2023-02-17T15:41:49;11.90;99.90
12287;DHT22;6206;53.100;11.098;2023-02-17T15:44:17;11.90;99.90
12287;DHT22;6206;53.100;11.098;2023-02-17T15:46:44;11.90;99.90
12287;DHT22;6206;53.100;11.098;2023-02-17T15:49:11;11.90;99.90
12287;DHT22;6206;53.100;11.098;2023-02-17T15:51:38;11.90;99.90
12287;DHT22;6206;53.100;11.098;2023-02-17T15:54:05;12.00;99.90
12287;DHT22;6206;53.100;11.098;2023-02-17T15:56:33;11.90;99.90
12287;DHT22;6206;53.100;11.098;2023-02-17T15:59:03;11.90;99.90
12287;DHT22;6206;53.100;11.098;2023-02-17T16:01:33;11.90;99.90
12287;DHT22;6206;53.100;11.098;2023-02-17T16:04:00;11.90;99.90
12287;DHT22;6206;53.100;11.098;2023-02-17T16:06:27;11.90;99.90
12287;DHT22;6206;53.100;11.098;2023-02-17T16:08:53;11.90;99.90
12287;DHT22;6206;53.100;11.098;2023-02-17T16:11:22;11.80;99.90
12287;DHT22;6206;53.100;11.098;2023-02-17T16:13:49;11.70;99.90
12287;DHT22;6206;53.100;11.098;2023-02-17T16:16:17;11.60;99.90
12287;DHT22;6206;53.100;11.098;2023-02-17T16:18:45;11.50;99.90
12287;DHT22;6206;53.100;11.098;2023-02-17T16:21:12;11.40;99.90
12287;DHT22;6206;53.100;11.098;2023-02-17T16:23:38;11.30;99.90
12287;DHT22;6206;53.100;11.098;2023-02-17T16:26:05;11.30;99.90